sensor_id;sensor_type;location;lat;lon;timestamp;pressure;altitude;pressure_sealevel;temperature;humidity
76853;BME280;65825;52.232;10.566;2023-02-23T00:00:52;100297.50;;;7.33;89.07
76853;BME280;65825;52.232;10.566;2023-02-23T00:03:17;100296.66;;;7.32;89.33
76853;BME280;65825;52.232;10.566;2023-02-23T00:05:42;100303.41;;;7.42;88.78
76853;BME280;65825;52.232;10.566;2023-02-23T00:08:08;100296.78;;;7.26;89.62
76853;BME280;65825;52.232;10.566;2023-02-23T00:10:35;100300.25;;;7.28;89.48
76853;BME280;65825;52.232;10.566;2023-02-23T00:13:00;100295.19;;;7.21;90.49
76853;BME280;65825;52.232;10.566;2023-02-23T00:15:26;100294.97;;;7.30;89.64
76853;BME280;65825;52.232;10.566;2023-02-23T00:17:56;100304.72;;;7.25;90.11
76853;BME280;65825;52.232;10.566;2023-02-23T00:20:23;100297.88;;;7.18;90.00
76853;BME280;65825;52.232;10.566;2023-02-23T00:22:55;100297.22;;;7.08;91.19
76853;BME280;65825;52.232;10.566;2023-02-23T00:25:24;100296.41;;;7.06;90.48
76853;BME280;65825;52.232;10.566;2023-02-23T00:27:50;100296.91;;;7.22;90.03
76853;BME280;65825;52.232;10.566;2023-02-23T00:30:17;100295.78;;;7.32;89.64
76853;BME280;65825;52.232;10.566;2023-02-23T00:32:42;100290.66;;;7.27;89.09
76853;BME280;65825;52.232;10.566;2023-02-23T00:35:09;100289.81;;;7.25;89.63
76853;BME280;65825;52.232;10.566;2023-02-23T00:37:47;100289.19;;;7.16;89.61
76853;BME280;65825;52.232;10.566;2023-02-23T00:40:14;100287.31;;;7.21;89.19
76853;BME280;65825;52.232;10.566;2023-02-23T00:42:42;100290.13;;;7.13;89.42
76853;BME280;65825;52.232;10.566;2023-02-23T00:45:08;100288.59;;;7.03;89.98
76853;BME280;65825;52.232;10.566;2023-02-23T00:47:39;100284.47;;;6.93;90.88
76853;BME280;65825;52.232;10.566;2023-02-23T00:50:08;100293.22;;;6.94;90.67
76853;BME280;65825;52.232;10.566;2023-02-23T00:52:35;100287.38;;;7.18;89.15
76853;BME280;65825;52.232;10.566;2023-02-23T00:55:01;100291.94;;;7.11;89.85
76853;BME280;65825;52.232;10.566;2023-02-23T00:57:26;100290.81;;;6.85;91.27
76853;BME280;65825;52.232;10.566;2023-02-23T00:59:51;100295.22;;;6.83;90.71
76853;BME280;65825;52.232;10.566;2023-02-23T01:02:16;100291.91;;;6.75;91.67
76853;BME280;65825;52.232;10.566;2023-02-23T01:04:42;100291.69;;;6.85;91.28
76853;BME280;65825;52.232;10.566;2023-02-23T01:07:07;100296.94;;;6.84;91.16
76853;BME280;65825;52.232;10.566;2023-02-23T01:09:32;100291.78;;;6.79;91.08
76853;BME280;65825;52.232;10.566;2023-02-23T01:12:00;100299.63;;;6.81;90.62
76853;BME280;65825;52.232;10.566;2023-02-23T01:14:27;100292.94;;;6.68;91.90
76853;BME280;65825;52.232;10.566;2023-02-23T01:16:52;100294.50;;;6.76;90.81
76853;BME280;65825;52.232;10.566;2023-02-23T01:19:17;100291.13;;;6.71;91.06
76853;BME280;65825;52.232;10.566;2023-02-23T01:21:43;100297.13;;;6.76;90.56
76853;BME280;65825;52.232;10.566;2023-02-23T01:24:09;100297.16;;;6.75;91.17
76853;BME280;65825;52.232;10.566;2023-02-23T01:26:41;100291.75;;;6.81;90.45
76853;BME280;65825;52.232;10.566;2023-02-23T01:29:15;100294.47;;;6.78;90.23
76853;BME280;65825;52.232;10.566;2023-02-23T01:31:43;100292.84;;;6.71;91.60
76853;BME280;65825;52.232;10.566;2023-02-23T01:34:11;100293.91;;;6.64;91.57
76853;BME280;65825;52.232;10.566;2023-02-23T01:36:38;100298.09;;;6.71;91.04
76853;BME280;65825;52.232;10.566;2023-02-23T01:39:05;100290.22;;;6.72;90.41
76853;BME280;65825;52.232;10.566;2023-02-23T01:41:33;100294.84;;;6.60;91.74
76853;BME280;65825;52.232;10.566;2023-02-23T01:46:31;100292.50;;;6.86;89.90
76853;BME280;65825;52.232;10.566;2023-02-23T01:48:58;100294.22;;;6.88;89.10
76853;BME280;65825;52.232;10.566;2023-02-23T01:51:27;100295.06;;;6.90;89.14
76853;BME280;65825;52.232;10.566;2023-02-23T01:54:00;100297.59;;;6.93;88.81
76853;BME280;65825;52.232;10.566;2023-02-23T01:56:30;100291.63;;;6.87;89.49
76853;BME280;65825;52.232;10.566;2023-02-23T01:58:58;100294.25;;;6.87;89.16
76853;BME280;65825;52.232;10.566;2023-02-23T02:01:26;100286.47;;;6.84;88.90
76853;BME280;65825;52.232;10.566;2023-02-23T02:03:56;100293.75;;;6.70;89.45
76853;BME280;65825;52.232;10.566;2023-02-23T02:06:23;100295.28;;;6.80;89.32
76853;BME280;65825;52.232;10.566;2023-02-23T02:08:54;100301.63;;;6.70;89.41
76853;BME280;65825;52.232;10.566;2023-02-23T02:11:21;100291.00;;;6.76;89.51
76853;BME280;65825;52.232;10.566;2023-02-23T02:13:52;100299.78;;;6.73;89.23
76853;BME280;65825;52.232;10.566;2023-02-23T02:19:05;100290.97;;;6.77;88.88
76853;BME280;65825;52.232;10.566;2023-02-23T02:36:38;100289.38;;;6.31;91.97
76853;BME280;65825;52.232;10.566;2023-02-23T02:39:19;100290.84;;;6.44;90.65
76853;BME280;65825;52.232;10.566;2023-02-23T02:42:08;100285.66;;;6.41;91.08
76853;BME280;65825;52.232;10.566;2023-02-23T02:45:21;100282.88;;;6.48;91.14
76853;BME280;65825;52.232;10.566;2023-02-23T02:50:36;100283.13;;;6.38;91.58
76853;BME280;65825;52.232;10.566;2023-02-23T02:53:17;100298.53;;;6.51;90.76
76853;BME280;65825;52.232;10.566;2023-02-23T02:55:44;100284.50;;;6.54;89.93
76853;BME280;65825;52.232;10.566;2023-02-23T02:58:13;100291.13;;;6.70;88.97
76853;BME280;65825;52.232;10.566;2023-02-23T03:01:05;100286.00;;;6.65;88.93
76853;BME280;65825;52.232;10.566;2023-02-23T03:03:50;100293.97;;;6.61;90.12
76853;BME280;65825;52.232;10.566;2023-02-23T03:06:45;100286.84;;;6.66;89.15
76853;BME280;65825;52.232;10.566;2023-02-23T03:09:41;100285.25;;;6.60;89.32
76853;BME280;65825;52.232;10.566;2023-02-23T03:12:34;100280.03;;;6.59;89.34
76853;BME280;65825;52.232;10.566;2023-02-23T03:15:45;100288.88;;;6.53;89.18
76853;BME280;65825;52.232;10.566;2023-02-23T03:19:00;100286.22;;;6.55;89.40
76853;BME280;65825;52.232;10.566;2023-02-23T03:22:00;100278.47;;;6.50;89.85
76853;BME280;65825;52.232;10.566;2023-02-23T03:25:07;100285.47;;;6.50;89.14
76853;BME280;65825;52.232;10.566;2023-02-23T03:27:59;100280.34;;;6.44;89.52
76853;BME280;65825;52.232;10.566;2023-02-23T03:30:52;100279.53;;;6.42;89.21
76853;BME280;65825;52.232;10.566;2023-02-23T03:36:34;100292.97;;;6.27;89.58
76853;BME280;65825;52.232;10.566;2023-02-23T03:39:36;100293.88;;;6.24;90.14
76853;BME280;65825;52.232;10.566;2023-02-23T03:42:27;100294.03;;;6.17;90.43
76853;BME280;65825;52.232;10.566;2023-02-23T03:45:17;100298.38;;;6.18;90.50
76853;BME280;65825;52.232;10.566;2023-02-23T03:48:04;100297.63;;;6.13;90.55
76853;BME280;65825;52.232;10.566;2023-02-23T03:50:57;100303.03;;;6.04;90.44
76853;BME280;65825;52.232;10.566;2023-02-23T03:57:02;100300.66;;;5.92;89.60
76853;BME280;65825;52.232;10.566;2023-02-23T03:59:52;100292.97;;;5.83;90.13
76853;BME280;65825;52.232;10.566;2023-02-23T04:02:38;100295.66;;;5.77;90.50
76853;BME280;65825;52.232;10.566;2023-02-23T04:05:25;100297.50;;;5.72;89.62
76853;BME280;65825;52.232;10.566;2023-02-23T04:08:13;100295.03;;;5.64;89.67
76853;BME280;65825;52.232;10.566;2023-02-23T04:11:27;100292.56;;;5.55;89.91
76853;BME280;65825;52.232;10.566;2023-02-23T04:14:16;100295.34;;;5.46;90.04
76853;BME280;65825;52.232;10.566;2023-02-23T04:16:44;100298.69;;;5.54;88.89
76853;BME280;65825;52.232;10.566;2023-02-23T04:19:10;100302.34;;;5.44;89.24
76853;BME280;65825;52.232;10.566;2023-02-23T04:21:35;100306.75;;;5.44;89.10
76853;BME280;65825;52.232;10.566;2023-02-23T04:24:00;100307.72;;;5.37;88.73
76853;BME280;65825;52.232;10.566;2023-02-23T04:26:26;100302.69;;;5.26;89.47
76853;BME280;65825;52.232;10.566;2023-02-23T04:28:51;100312.38;;;5.20;88.89
76853;BME280;65825;52.232;10.566;2023-02-23T04:31:16;100304.44;;;5.24;88.14
76853;BME280;65825;52.232;10.566;2023-02-23T04:33:42;100312.56;;;5.08;88.21
76853;BME280;65825;52.232;10.566;2023-02-23T04:36:08;100311.78;;;5.03;88.65
76853;BME280;65825;52.232;10.566;2023-02-23T04:38:33;100304.19;;;4.86;89.31
76853;BME280;65825;52.232;10.566;2023-02-23T04:40:59;100310.41;;;4.79;90.17
76853;BME280;65825;52.232;10.566;2023-02-23T04:43:24;100308.56;;;4.84;90.60
76853;BME280;65825;52.232;10.566;2023-02-23T04:45:49;100311.19;;;4.84;91.10
76853;BME280;65825;52.232;10.566;2023-02-23T04:48:14;100312.06;;;4.83;90.88
76853;BME280;65825;52.232;10.566;2023-02-23T04:50:40;100310.28;;;4.87;91.26
76853;BME280;65825;52.232;10.566;2023-02-23T04:53:05;100318.88;;;4.95;90.32
76853;BME280;65825;52.232;10.566;2023-02-23T04:55:30;100310.31;;;4.85;90.88
76853;BME280;65825;52.232;10.566;2023-02-23T04:57:58;100308.50;;;4.87;90.61
76853;BME280;65825;52.232;10.566;2023-02-23T05:00:25;100318.16;;;4.85;90.72
76853;BME280;65825;52.232;10.566;2023-02-23T05:02:50;100315.50;;;4.87;90.06
76853;BME280;65825;52.232;10.566;2023-02-23T05:05:16;100318.06;;;4.90;89.89
76853;BME280;65825;52.232;10.566;2023-02-23T05:07:41;100317.25;;;4.88;90.15
76853;BME280;65825;52.232;10.566;2023-02-23T05:10:07;100312.91;;;4.87;89.76
76853;BME280;65825;52.232;10.566;2023-02-23T05:12:33;100313.94;;;4.75;90.85
76853;BME280;65825;52.232;10.566;2023-02-23T05:14:58;100308.63;;;4.80;90.83
76853;BME280;65825;52.232;10.566;2023-02-23T05:17:24;100310.34;;;4.82;90.98
76853;BME280;65825;52.232;10.566;2023-02-23T05:19:49;100317.25;;;4.86;90.71
76853;BME280;65825;52.232;10.566;2023-02-23T05:22:14;100312.84;;;4.90;90.44
76853;BME280;65825;52.232;10.566;2023-02-23T05:24:40;100316.25;;;4.95;90.34
76853;BME280;65825;52.232;10.566;2023-02-23T05:27:09;100317.13;;;4.94;90.54
76853;BME280;65825;52.232;10.566;2023-02-23T05:29:34;100318.97;;;4.89;90.82
76853;BME280;65825;52.232;10.566;2023-02-23T05:32:00;100318.06;;;4.91;90.39
76853;BME280;65825;52.232;10.566;2023-02-23T05:34:25;100322.50;;;4.85;90.65
76853;BME280;65825;52.232;10.566;2023-02-23T05:36:51;100320.78;;;4.84;90.43
76853;BME280;65825;52.232;10.566;2023-02-23T05:39:16;100318.16;;;4.85;89.84
76853;BME280;65825;52.232;10.566;2023-02-23T05:41:41;100312.91;;;4.87;90.23
76853;BME280;65825;52.232;10.566;2023-02-23T05:44:06;100320.00;;;4.77;90.62
76853;BME280;65825;52.232;10.566;2023-02-23T05:46:32;100327.03;;;4.72;90.85
76853;BME280;65825;52.232;10.566;2023-02-23T05:48:59;100325.19;;;4.80;90.49
76853;BME280;65825;52.232;10.566;2023-02-23T05:51:26;100324.38;;;4.77;90.99
76853;BME280;65825;52.232;10.566;2023-02-23T05:53:51;100332.22;;;4.77;90.99
76853;BME280;65825;52.232;10.566;2023-02-23T05:56:17;100326.19;;;4.73;91.55
76853;BME280;65825;52.232;10.566;2023-02-23T05:58:48;100332.22;;;4.78;91.31
76853;BME280;65825;52.232;10.566;2023-02-23T06:01:14;100329.59;;;4.77;90.76
76853;BME280;65825;52.232;10.566;2023-02-23T06:03:39;100332.22;;;4.78;90.19
76853;BME280;65825;52.232;10.566;2023-02-23T06:06:05;100330.50;;;4.76;90.23
76853;BME280;65825;52.232;10.566;2023-02-23T06:08:30;100335.75;;;4.73;90.49
76853;BME280;65825;52.232;10.566;2023-02-23T06:10:55;100339.44;;;4.58;91.44
76853;BME280;65825;52.232;10.566;2023-02-23T06:13:21;100341.19;;;4.58;91.06
76853;BME280;65825;52.232;10.566;2023-02-23T06:15:46;100338.47;;;4.67;90.54
76853;BME280;65825;52.232;10.566;2023-02-23T06:18:11;100344.53;;;4.69;90.42
76853;BME280;65825;52.232;10.566;2023-02-23T06:20:37;100335.06;;;4.59;90.96
76853;BME280;65825;52.232;10.566;2023-02-23T06:23:03;100329.91;;;4.54;91.06
76853;BME280;65825;52.232;10.566;2023-02-23T06:25:29;100337.69;;;4.57;90.79
76853;BME280;65825;52.232;10.566;2023-02-23T06:27:54;100340.31;;;4.57;90.63
76853;BME280;65825;52.232;10.566;2023-02-23T06:30:20;100343.81;;;4.58;90.86
76853;BME280;65825;52.232;10.566;2023-02-23T06:32:45;100344.63;;;4.60;91.00
76853;BME280;65825;52.232;10.566;2023-02-23T06:35:11;100350.66;;;4.65;91.31
76853;BME280;65825;52.232;10.566;2023-02-23T06:37:37;100354.94;;;4.73;91.05
76853;BME280;65825;52.232;10.566;2023-02-23T06:40:03;100356.66;;;4.76;91.40
76853;BME280;65825;52.232;10.566;2023-02-23T06:42:29;100353.03;;;4.84;91.05
76853;BME280;65825;52.232;10.566;2023-02-23T06:44:54;100354.56;;;4.97;90.18
76853;BME280;65825;52.232;10.566;2023-02-23T06:47:19;100355.38;;;5.02;90.06
76853;BME280;65825;52.232;10.566;2023-02-23T06:49:45;100359.59;;;5.11;90.37
76853;BME280;65825;52.232;10.566;2023-02-23T06:52:11;100362.06;;;5.21;90.49
76853;BME280;65825;52.232;10.566;2023-02-23T06:54:38;100359.25;;;5.35;89.90
76853;BME280;65825;52.232;10.566;2023-02-23T06:57:04;100365.13;;;5.49;88.97
76853;BME280;65825;52.232;10.566;2023-02-23T06:59:29;100359.81;;;5.53;88.85
76853;BME280;65825;52.232;10.566;2023-02-23T07:01:55;100367.41;;;5.68;88.78
76853;BME280;65825;52.232;10.566;2023-02-23T07:04:20;100374.94;;;5.88;88.79
76853;BME280;65825;52.232;10.566;2023-02-23T07:06:46;100371.94;;;6.09;88.06
76853;BME280;65825;52.232;10.566;2023-02-23T07:09:12;100371.75;;;6.18;89.05
76853;BME280;65825;52.232;10.566;2023-02-23T07:11:38;100381.09;;;6.32;88.80
76853;BME280;65825;52.232;10.566;2023-02-23T07:14:05;100378.19;;;6.46;88.55
76853;BME280;65825;52.232;10.566;2023-02-23T07:16:30;100390.38;;;6.48;88.97
76853;BME280;65825;52.232;10.566;2023-02-23T07:18:56;100388.19;;;6.70;88.32
76853;BME280;65825;52.232;10.566;2023-02-23T07:21:21;100391.41;;;6.84;88.71
76853;BME280;65825;52.232;10.566;2023-02-23T07:24:50;100386.22;;;7.55;89.93
76853;BME280;65825;52.232;10.566;2023-02-23T07:27:17;100382.88;;;7.84;84.77
76853;BME280;65825;52.232;10.566;2023-02-23T07:29:43;100383.78;;;7.83;84.58
76853;BME280;65825;52.232;10.566;2023-02-23T07:32:08;100393.69;;;7.73;85.39
76853;BME280;65825;52.232;10.566;2023-02-23T07:34:33;100389.09;;;7.80;84.57
76853;BME280;65825;52.232;10.566;2023-02-23T07:36:58;100392.69;;;7.77;85.49
76853;BME280;65825;52.232;10.566;2023-02-23T07:39:24;100388.22;;;7.81;85.13
76853;BME280;65825;52.232;10.566;2023-02-23T07:41:49;100394.84;;;7.95;84.57
76853;BME280;65825;52.232;10.566;2023-02-23T07:44:14;100391.47;;;7.90;85.14
76853;BME280;65825;52.232;10.566;2023-02-23T07:46:40;100389.59;;;7.95;85.01
76853;BME280;65825;52.232;10.566;2023-02-23T07:49:05;100395.66;;;7.97;86.09
76853;BME280;65825;52.232;10.566;2023-02-23T07:51:31;100392.09;;;8.00;86.20
76853;BME280;65825;52.232;10.566;2023-02-23T07:54:01;100391.13;;;8.04;85.56
76853;BME280;65825;52.232;10.566;2023-02-23T07:56:27;100398.78;;;8.13;85.01
76853;BME280;65825;52.232;10.566;2023-02-23T07:58:52;100395.19;;;8.15;85.16
76853;BME280;65825;52.232;10.566;2023-02-23T08:01:19;100398.47;;;8.25;84.77
76853;BME280;65825;52.232;10.566;2023-02-23T08:03:44;100408.72;;;8.35;84.72
76853;BME280;65825;52.232;10.566;2023-02-23T08:06:14;100405.03;;;8.41;84.70
76853;BME280;65825;52.232;10.566;2023-02-23T08:08:39;100404.91;;;8.45;84.70
76853;BME280;65825;52.232;10.566;2023-02-23T08:11:05;100406.44;;;8.54;84.46
76853;BME280;65825;52.232;10.566;2023-02-23T08:13:30;100410.06;;;8.50;84.95
76853;BME280;65825;52.232;10.566;2023-02-23T08:15:57;100417.81;;;8.54;84.87
76853;BME280;65825;52.232;10.566;2023-02-23T08:18:22;100414.03;;;8.64;84.29
76853;BME280;65825;52.232;10.566;2023-02-23T08:20:48;100406.34;;;8.87;83.56
76853;BME280;65825;52.232;10.566;2023-02-23T08:23:13;100411.25;;;8.99;82.78
76853;BME280;65825;52.232;10.566;2023-02-23T08:25:41;100406.75;;;9.03;82.69
76853;BME280;65825;52.232;10.566;2023-02-23T08:28:06;100404.75;;;9.11;82.69
76853;BME280;65825;52.232;10.566;2023-02-23T08:30:32;100410.63;;;9.19;82.15
76853;BME280;65825;52.232;10.566;2023-02-23T08:32:58;100407.06;;;9.21;82.26
76853;BME280;65825;52.232;10.566;2023-02-23T08:35:26;100410.38;;;9.28;81.88
76853;BME280;65825;52.232;10.566;2023-02-23T08:37:51;100412.97;;;9.29;82.08
76853;BME280;65825;52.232;10.566;2023-02-23T08:40:17;100405.44;;;9.45;81.85
76853;BME280;65825;52.232;10.566;2023-02-23T08:42:44;100409.91;;;9.43;81.12
76853;BME280;65825;52.232;10.566;2023-02-23T08:45:10;100412.84;;;9.60;80.97
76853;BME280;65825;52.232;10.566;2023-02-23T08:47:35;100414.81;;;9.53;80.79
76853;BME280;65825;52.232;10.566;2023-02-23T08:50:01;100417.28;;;9.59;81.33
76853;BME280;65825;52.232;10.566;2023-02-23T08:52:26;100419.03;;;9.59;81.11
76853;BME280;65825;52.232;10.566;2023-02-23T08:54:52;100413.53;;;9.66;80.75
76853;BME280;65825;52.232;10.566;2023-02-23T08:57:18;100410.66;;;9.74;80.43
76853;BME280;65825;52.232;10.566;2023-02-23T08:59:43;100416.25;;;9.89;79.92
76853;BME280;65825;52.232;10.566;2023-02-23T09:02:11;100417.13;;;9.90;79.45
76853;BME280;65825;52.232;10.566;2023-02-23T09:04:37;100426.34;;;10.03;79.92
76853;BME280;65825;52.232;10.566;2023-02-23T09:07:03;100420.09;;;10.07;79.73
76853;BME280;65825;52.232;10.566;2023-02-23T09:09:28;100421.72;;;10.11;79.09
76853;BME280;65825;52.232;10.566;2023-02-23T09:11:54;100418.22;;;10.10;79.39
76853;BME280;65825;52.232;10.566;2023-02-23T09:14:19;100434.41;;;9.72;80.88
76853;BME280;65825;52.232;10.566;2023-02-23T09:16:45;100434.44;;;9.71;80.72
76853;BME280;65825;52.232;10.566;2023-02-23T09:19:11;100428.22;;;9.73;80.36
76853;BME280;65825;52.232;10.566;2023-02-23T09:21:36;100432.97;;;9.62;80.59
76853;BME280;65825;52.232;10.566;2023-02-23T09:24:02;100428.13;;;9.76;80.57
76853;BME280;65825;52.232;10.566;2023-02-23T09:26:27;100427.22;;;9.77;80.21
76853;BME280;65825;52.232;10.566;2023-02-23T09:28:54;100426.97;;;9.85;80.54
76853;BME280;65825;52.232;10.566;2023-02-23T09:31:21;100432.66;;;9.99;80.17
76853;BME280;65825;52.232;10.566;2023-02-23T09:33:47;100435.19;;;10.02;79.84
76853;BME280;65825;52.232;10.566;2023-02-23T09:36:15;100439.53;;;10.04;79.37
76853;BME280;65825;52.232;10.566;2023-02-23T09:38:46;100436.91;;;10.03;79.23
76853;BME280;65825;52.232;10.566;2023-02-23T09:43:55;100439.16;;;9.89;79.88
76853;BME280;65825;52.232;10.566;2023-02-23T09:49:03;100449.69;;;9.89;80.03
76853;BME280;65825;52.232;10.566;2023-02-23T09:51:33;100444.53;;;9.84;80.25
76853;BME280;65825;52.232;10.566;2023-02-23T09:54:00;100452.53;;;9.83;80.53
76853;BME280;65825;52.232;10.566;2023-02-23T09:56:38;100450.50;;;9.91;80.27
76853;BME280;65825;52.232;10.566;2023-02-23T09:59:06;100452.78;;;10.01;80.17
76853;BME280;65825;52.232;10.566;2023-02-23T10:07:11;100456.84;;;9.85;80.44
76853;BME280;65825;52.232;10.566;2023-02-23T10:23:06;100447.19;;;9.84;81.16
76853;BME280;65825;52.232;10.566;2023-02-23T10:25:37;100449.78;;;9.86;80.88
76853;BME280;65825;52.232;10.566;2023-02-23T10:28:04;100456.59;;;9.93;80.42
76853;BME280;65825;52.232;10.566;2023-02-23T10:30:33;100452.28;;;9.90;80.82
76853;BME280;65825;52.232;10.566;2023-02-23T10:33:04;100453.63;;;9.76;81.33
76853;BME280;65825;52.232;10.566;2023-02-23T10:35:31;100460.72;;;9.74;82.05
76853;BME280;65825;52.232;10.566;2023-02-23T10:37:59;100465.03;;;9.76;81.90
76853;BME280;65825;52.232;10.566;2023-02-23T10:40:27;100453.13;;;9.91;81.24
76853;BME280;65825;52.232;10.566;2023-02-23T10:42:54;100468.19;;;9.87;81.67
76853;BME280;65825;52.232;10.566;2023-02-23T10:45:22;100459.28;;;9.64;81.80
76853;BME280;65825;52.232;10.566;2023-02-23T10:47:52;100467.03;;;9.41;83.09
76853;BME280;65825;52.232;10.566;2023-02-23T10:50:19;100463.06;;;9.55;82.46
76853;BME280;65825;52.232;10.566;2023-02-23T10:52:48;100463.81;;;9.60;82.83
76853;BME280;65825;52.232;10.566;2023-02-23T10:57:49;100463.72;;;9.89;81.63
76853;BME280;65825;52.232;10.566;2023-02-23T11:00:28;100462.69;;;10.21;80.59
76853;BME280;65825;52.232;10.566;2023-02-23T11:02:58;100458.84;;;10.31;79.94
76853;BME280;65825;52.232;10.566;2023-02-23T11:08:30;100460.47;;;10.35;79.51
76853;BME280;65825;52.232;10.566;2023-02-23T11:11:04;100462.19;;;10.36;79.88
76853;BME280;65825;52.232;10.566;2023-02-23T11:13:38;100457.44;;;10.45;79.50
76853;BME280;65825;52.232;10.566;2023-02-23T11:16:07;100447.16;;;10.38;80.01
76853;BME280;65825;52.232;10.566;2023-02-23T11:18:35;100452.16;;;10.21;80.38
76853;BME280;65825;52.232;10.566;2023-02-23T11:21:00;100454.41;;;10.31;81.11
76853;BME280;65825;52.232;10.566;2023-02-23T11:23:33;100447.66;;;9.97;82.40
76853;BME280;65825;52.232;10.566;2023-02-23T11:26:02;100442.53;;;9.92;82.75
76853;BME280;65825;52.232;10.566;2023-02-23T11:28:41;100441.31;;;10.02;82.79
76853;BME280;65825;52.232;10.566;2023-02-23T11:31:14;100444.41;;;9.89;82.58
76853;BME280;65825;52.232;10.566;2023-02-23T11:33:42;100445.41;;;9.59;84.35
76853;BME280;65825;52.232;10.566;2023-02-23T11:38:44;100441.53;;;9.14;86.90
76853;BME280;65825;52.232;10.566;2023-02-23T11:41:19;100440.28;;;9.54;85.74
76853;BME280;65825;52.232;10.566;2023-02-23T11:43:49;100443.94;;;9.49;84.94
76853;BME280;65825;52.232;10.566;2023-02-23T11:46:15;100433.28;;;9.26;86.81
76853;BME280;65825;52.232;10.566;2023-02-23T11:49:05;100439.38;;;9.26;86.55
76853;BME280;65825;52.232;10.566;2023-02-23T11:51:34;100426.50;;;9.45;86.12
76853;BME280;65825;52.232;10.566;2023-02-23T11:54:01;100426.16;;;9.57;85.91
76853;BME280;65825;52.232;10.566;2023-02-23T11:56:29;100420.06;;;9.81;86.01
76853;BME280;65825;52.232;10.566;2023-02-23T11:59:14;100428.00;;;9.79;86.17
76853;BME280;65825;52.232;10.566;2023-02-23T12:01:48;100430.66;;;10.07;84.38
76853;BME280;65825;52.232;10.566;2023-02-23T12:04:34;100417.88;;;9.93;84.47
76853;BME280;65825;52.232;10.566;2023-02-23T12:07:39;100423.31;;;9.89;84.31
76853;BME280;65825;52.232;10.566;2023-02-23T12:10:22;100420.06;;;10.08;83.99
76853;BME280;65825;52.232;10.566;2023-02-23T12:13:09;100430.66;;;9.79;84.88
76853;BME280;65825;52.232;10.566;2023-02-23T12:18:35;100422.69;;;9.55;86.90
76853;BME280;65825;52.232;10.566;2023-02-23T12:23:45;100420.81;;;9.31;87.92
76853;BME280;65825;52.232;10.566;2023-02-23T12:26:17;100418.75;;;9.68;86.39
76853;BME280;65825;52.232;10.566;2023-02-23T12:29:14;100419.56;;;9.96;84.71
76853;BME280;65825;52.232;10.566;2023-02-23T12:31:46;100408.06;;;9.72;85.62
76853;BME280;65825;52.232;10.566;2023-02-23T12:36:53;100408.31;;;9.91;85.34
76853;BME280;65825;52.232;10.566;2023-02-23T12:39:32;100405.63;;;9.92;85.57
76853;BME280;65825;52.232;10.566;2023-02-23T12:42:12;100403.44;;;10.06;84.04
76853;BME280;65825;52.232;10.566;2023-02-23T12:50:26;100404.44;;;10.27;83.52
76853;BME280;65825;52.232;10.566;2023-02-23T12:52:56;100402.28;;;10.13;83.86
76853;BME280;65825;52.232;10.566;2023-02-23T12:56:16;100400.56;;;9.86;84.49
76853;BME280;65825;52.232;10.566;2023-02-23T13:01:09;100399.16;;;9.49;86.90
76853;BME280;65825;52.232;10.566;2023-02-23T13:06:48;100409.19;;;9.38;87.70
76853;BME280;65825;52.232;10.566;2023-02-23T13:17:40;100405.16;;;9.54;87.49
76853;BME280;65825;52.232;10.566;2023-02-23T13:22:48;100402.69;;;9.20;88.35
76853;BME280;65825;52.232;10.566;2023-02-23T13:29:06;100397.88;;;9.62;87.94
76853;BME280;65825;52.232;10.566;2023-02-23T13:31:33;100402.59;;;9.51;87.24
76853;BME280;65825;52.232;10.566;2023-02-23T13:34:00;100388.59;;;9.50;88.38
76853;BME280;65825;52.232;10.566;2023-02-23T13:36:28;100387.38;;;9.60;88.10
76853;BME280;65825;52.232;10.566;2023-02-23T13:39:20;100394.19;;;9.66;87.78
76853;BME280;65825;52.232;10.566;2023-02-23T13:44:30;100392.06;;;10.03;86.38
76853;BME280;65825;52.232;10.566;2023-02-23T13:47:22;100395.66;;;10.00;84.83
76853;BME280;65825;52.232;10.566;2023-02-23T13:50:15;100384.25;;;9.75;86.04
76853;BME280;65825;52.232;10.566;2023-02-23T13:52:44;100394.19;;;9.66;86.15
76853;BME280;65825;52.232;10.566;2023-02-23T14:00:28;100395.03;;;9.40;86.63
76853;BME280;65825;52.232;10.566;2023-02-23T14:02:53;100393.69;;;9.27;88.28
76853;BME280;65825;52.232;10.566;2023-02-23T14:05:26;100392.00;;;9.25;87.86
76853;BME280;65825;52.232;10.566;2023-02-23T14:08:00;100392.31;;;9.16;88.33
76853;BME280;65825;52.232;10.566;2023-02-23T14:10:34;100396.22;;;9.03;88.87
76853;BME280;65825;52.232;10.566;2023-02-23T14:21:16;100396.25;;;8.72;90.40
76853;BME280;65825;52.232;10.566;2023-02-23T14:23:37;100400.56;;;8.75;90.69
76853;BME280;65825;52.232;10.566;2023-02-23T14:31:52;100388.91;;;8.83;89.54
76853;BME280;65825;52.232;10.566;2023-02-23T14:34:18;100396.19;;;8.74;89.76
76853;BME280;65825;52.232;10.566;2023-02-23T14:36:44;100397.81;;;8.79;90.16
76853;BME280;65825;52.232;10.566;2023-02-23T14:39:28;100398.03;;;8.72;90.24
76853;BME280;65825;52.232;10.566;2023-02-23T14:41:58;100394.19;;;8.83;90.17
76853;BME280;65825;52.232;10.566;2023-02-23T14:44:27;100392.28;;;8.88;89.96
76853;BME280;65825;52.232;10.566;2023-02-23T14:47:13;100401.53;;;8.72;89.38
76853;BME280;65825;52.232;10.566;2023-02-23T14:49:46;100398.16;;;8.67;90.18
76853;BME280;65825;52.232;10.566;2023-02-23T14:52:29;100399.50;;;8.51;90.15
76853;BME280;65825;52.232;10.566;2023-02-23T14:57:39;100396.72;;;8.56;90.96
76853;BME280;65825;52.232;10.566;2023-02-23T15:02:39;100401.59;;;8.39;92.04
76853;BME280;65825;52.232;10.566;2023-02-23T15:05:17;100403.66;;;8.28;91.92
76853;BME280;65825;52.232;10.566;2023-02-23T15:07:42;100398.34;;;8.29;91.47
76853;BME280;65825;52.232;10.566;2023-02-23T15:10:17;100399.44;;;8.21;91.73
76853;BME280;65825;52.232;10.566;2023-02-23T15:12:45;100388.91;;;8.22;92.57